الصفحة الرئيسية
METAR-TAF:

METAR-TAF

مطار :

Toliara, مدغشقر

دائرة عرض: 23-23S, خط طول: 043-44E, ارتفاع: 8 متر

METAR: مفقودة

زمن: 03:48 (00:48 UTC)

توقعات

تاريخ ووقت الإصدار 1ساعة و 48 دقيقة قبل الساعة 23:00UTC
التوقعات صالحة من29 الساعة 00 UTC إلى 29 الساعة 24 UTC
ريح 7 عقدة من الجنوب/الجنوب الشرقي
الرؤية 10 كم أو أكثر
غيوم قليلة على ارتفاع 2000 قدم
غيوم متفرقة على ارتفاع 4000 قدم
أصبح
من 29 الساعة 06 UTC إلى 29 الساعة 09 UTC
ريح 12 عقدة من الغرب/الجنوب الغربي
أصبح
من 29 الساعة 15 UTC إلى 29 الساعة 18 UTC
ريح 7 عقدة من الجنوب الشرقي

TAF: FMST 282300Z 2900/2924 16007KT 9999 FEW020 SCT040 BECMG 2906/2909 24012KT BECMG 2915/2918 14007KT

أرصاد الطقس والتوقعات من أكثر من 4000 مطار (تقارير الطقس للمطار METAR والتنبؤ بالطقس بالمطارTAF).

المحطات المتاحة هي النقط الصفراء والحمراء على الخريطة.

حرك المؤشر فوق النقطة لمعرفة اسم المحطة.

ثم انقر لمعرفة أرصاد وتوقعات الطقس.

لتغيير الخارطة: اضغط على الأزرار الخضراء مع رمز الصليب الأسود للتكبير. على الزر الأخضر مع شرطة للتصغير، أو على الأسهم الخضراء للخرائط المجاورة.


METAR-TAF: